createdAt,value
2022-10-18T00:01:06.113Z,101322.31
2022-10-18T00:03:34.871Z,101329.66
2022-10-18T00:06:03.262Z,101333.59
2022-10-18T00:08:31.298Z,101324.75
2022-10-18T00:10:58.808Z,101325.00
2022-10-18T00:13:26.757Z,101323.53
2022-10-18T00:15:56.372Z,101320.09
2022-10-18T00:18:24.408Z,101321.22
2022-10-18T00:21:06.494Z,101316.91
2022-10-18T00:23:35.972Z,101320.63
2022-10-18T00:26:14.844Z,101318.91
2022-10-18T00:28:42.968Z,101313.75
2022-10-18T00:31:21.602Z,101299.56
2022-10-18T00:33:52.148Z,101308.59
2022-10-18T00:36:20.725Z,101302.50
2022-10-18T00:38:49.238Z,101297.34
2022-10-18T00:41:21.792Z,101293.66
2022-10-18T00:44:28.210Z,101291.22
2022-10-18T00:47:02.473Z,101283.38
2022-10-18T00:49:36.040Z,101279.72
2022-10-18T00:52:22.718Z,101268.22
2022-10-18T00:54:52.363Z,101276.41
2022-10-18T00:57:19.101Z,101272.13
2022-10-18T00:59:47.544Z,101261.34
2022-10-18T01:02:18.311Z,101256.69
2022-10-18T01:04:47.440Z,101255.84
2022-10-18T01:07:42.440Z,101259.38
2022-10-18T01:10:34.990Z,101264.75
2022-10-18T01:13:29.158Z,101263.06
2022-10-18T01:16:45.118Z,101264.03
2022-10-18T01:19:38.927Z,101266.72
2022-10-18T01:22:50.312Z,101265.00
2022-10-18T01:26:01.687Z,101266.72
2022-10-18T01:29:08.050Z,101248.84
2022-10-18T01:31:48.105Z,101249.59
2022-10-18T01:34:17.998Z,101252.28
2022-10-18T01:36:51.057Z,101252.28
2022-10-18T01:39:23.690Z,101256.69
2022-10-18T01:41:53.972Z,101252.28
2022-10-18T01:44:26.596Z,101247.75
2022-10-18T01:46:57.224Z,101247.16
2022-10-18T01:49:25.781Z,101245.44
2022-10-18T01:51:54.150Z,101241.25
2022-10-18T01:54:28.095Z,101233.41
2022-10-18T01:57:15.743Z,101231.97
2022-10-18T02:00:05.126Z,101235.63
2022-10-18T02:02:48.516Z,101224.88
2022-10-18T02:05:42.634Z,101216.06
2022-10-18T02:08:28.598Z,101214.09
2022-10-18T02:11:06.929Z,101217.25
2022-10-18T02:13:48.284Z,101204.56
2022-10-18T02:16:22.960Z,101202.34
2022-10-18T02:18:58.862Z,101204.78
2022-10-18T02:21:28.088Z,101194.72
2022-10-18T02:23:58.549Z,101198.44
2022-10-18T02:26:25.562Z,101198.69
2022-10-18T02:28:53.506Z,101197.78
2022-10-18T02:31:44.444Z,101195.59
2022-10-18T02:34:24.739Z,101199.66
2022-10-18T02:36:58.776Z,101189.13
2022-10-18T02:39:35.852Z,101198.78
2022-10-18T02:42:10.913Z,101192.56
2022-10-18T02:44:38.631Z,101206.50
2022-10-18T02:47:08.300Z,101197.44
2022-10-18T02:49:36.302Z,101197.91
2022-10-18T02:52:04.439Z,101201.50
2022-10-18T02:54:31.018Z,101202.34
2022-10-18T02:56:58.897Z,101207.72
2022-10-18T02:59:26.866Z,101202.47
2022-10-18T03:01:54.879Z,101204.06
2022-10-18T03:04:23.032Z,101205.75
2022-10-18T03:06:49.655Z,101204.31
2022-10-18T03:09:16.542Z,101210.53
2022-10-18T03:11:44.373Z,101218.50
2022-10-18T03:14:12.449Z,101212.38
2022-10-18T03:16:40.800Z,101213.34
2022-10-18T03:19:08.491Z,101212.63
2022-10-18T03:21:36.529Z,101217.03
2022-10-18T03:24:04.750Z,101216.78
2022-10-18T03:26:32.633Z,101221.31
2022-10-18T03:29:00.634Z,101227.78
2022-10-18T03:31:28.702Z,101224.72
2022-10-18T03:33:56.921Z,101225.09
2022-10-18T03:36:24.672Z,101224.38
2022-10-18T03:38:52.503Z,101217.50
2022-10-18T03:41:20.921Z,101215.19
2022-10-18T03:43:48.839Z,101227.06
2022-10-18T03:46:15.487Z,101229.25
2022-10-18T03:48:42.124Z,101225.13
2022-10-18T03:51:10.315Z,101226.06
2022-10-18T03:53:39.087Z,101233.44
2022-10-18T03:56:07.118Z,101233.44
2022-10-18T04:01:07.104Z,101237.56
2022-10-18T04:03:33.662Z,101234.16
2022-10-18T04:06:00.840Z,101239.78
2022-10-18T04:08:27.496Z,101245.41
2022-10-18T04:10:54.140Z,101238.50
2022-10-18T04:13:21.852Z,101233.13
2022-10-18T04:15:49.880Z,101233.13
2022-10-18T04:18:17.746Z,101220.41
2022-10-18T04:20:45.489Z,101228.03
2022-10-18T04:23:13.318Z,101215.78
2022-10-18T04:25:41.179Z,101215.56
2022-10-18T04:28:08.819Z,101212.13
2022-10-18T04:30:36.696Z,101211.16
2022-10-18T04:33:04.495Z,101207.00
2022-10-18T04:35:32.497Z,101205.28
2022-10-18T04:38:03.033Z,101201.84
2022-10-18T04:40:31.037Z,101192.69
2022-10-18T04:42:58.953Z,101198.19
2022-10-18T04:45:26.684Z,101196.72
2022-10-18T04:47:54.552Z,101187.91
2022-10-18T04:50:22.362Z,101185.94
2022-10-18T04:55:23.357Z,101193.06
2022-10-18T04:57:52.454Z,101196.72
2022-10-18T05:00:20.293Z,101190.72
2022-10-18T05:02:50.412Z,101197.16
2022-10-18T05:05:18.450Z,101198.88
2022-10-18T05:07:46.347Z,101196.94
2022-10-18T05:10:14.033Z,101193.28
2022-10-18T05:12:43.803Z,101199.66
2022-10-18T05:15:11.501Z,101199.16
2022-10-18T05:17:40.655Z,101202.22
2022-10-18T05:20:11.482Z,101195.75
2022-10-18T05:22:39.555Z,101198.91
2022-10-18T05:25:10.230Z,101199.63
2022-10-18T05:27:38.406Z,101205.78
2022-10-18T05:30:06.777Z,101207.47
2022-10-18T05:32:36.514Z,101210.03
2022-10-18T05:35:04.689Z,101203.56
2022-10-18T05:37:32.823Z,101208.47
2022-10-18T05:39:59.763Z,101211.63
2022-10-18T05:42:27.591Z,101200.63
2022-10-18T05:44:55.376Z,101200.13
2022-10-18T05:47:23.289Z,101207.81
2022-10-18T05:49:49.982Z,101204.75
2022-10-18T05:52:17.280Z,101198.88
2022-10-18T05:54:43.936Z,101203.03
2022-10-18T05:57:10.535Z,101203.50
2022-10-18T05:59:37.112Z,101199.09
2022-10-18T06:02:03.790Z,101205.66
2022-10-18T06:04:30.417Z,101190.19
2022-10-18T06:06:57.101Z,101199.72
2022-10-18T06:09:23.743Z,101198.94
2022-10-18T06:11:50.321Z,101199.94
2022-10-18T06:14:16.872Z,101201.50
2022-10-18T06:16:43.435Z,101191.88
2022-10-18T06:19:10.400Z,101197.94
2022-10-18T06:21:37.026Z,101199.72
2022-10-18T06:24:03.752Z,101196.94
2022-10-18T06:26:30.376Z,101197.53
2022-10-18T06:28:56.992Z,101193.88
2022-10-18T06:31:23.756Z,101206.56
2022-10-18T06:33:50.633Z,101206.75
2022-10-18T06:36:19.841Z,101212.03
2022-10-18T06:38:46.517Z,101209.97
2022-10-18T06:41:13.411Z,101207.97
2022-10-18T06:43:40.316Z,101209.69
2022-10-18T06:46:08.291Z,101197.50
2022-10-18T06:48:36.597Z,101206.03
2022-10-18T06:51:06.149Z,101211.47
2022-10-18T06:53:40.800Z,101204.06
2022-10-18T06:56:12.802Z,101201.88
2022-10-18T06:58:40.579Z,101199.75
2022-10-18T07:01:19.903Z,101198.31
2022-10-18T07:03:48.007Z,101208.38
2022-10-18T07:06:17.435Z,101207.97
2022-10-18T07:08:44.878Z,101203.25
2022-10-18T07:11:17.561Z,101198.44
2022-10-18T07:13:44.525Z,101198.06
2022-10-18T07:16:17.276Z,101193.53
2022-10-18T07:18:50.840Z,101192.31
2022-10-18T07:21:20.262Z,101190.88
2022-10-18T07:23:47.906Z,101201.66
2022-10-18T07:26:27.183Z,101188.44
2022-10-18T07:29:00.520Z,101191.22
2022-10-18T07:31:28.788Z,101186.94
2022-10-18T07:33:55.548Z,101194.25
2022-10-18T07:36:24.722Z,101192.00
2022-10-18T07:38:54.564Z,101191.31
2022-10-18T07:41:23.336Z,101191.94
2022-10-18T07:43:52.734Z,101194.69
2022-10-18T07:46:22.103Z,101190.78
2022-10-18T07:48:50.418Z,101189.72
2022-10-18T07:51:20.268Z,101187.38
2022-10-18T07:53:48.510Z,101185.22
2022-10-18T07:56:21.015Z,101192.44
2022-10-18T07:58:55.289Z,101184.97
2022-10-18T08:01:24.796Z,101182.50
2022-10-18T08:03:53.082Z,101187.81
2022-10-18T08:06:22.915Z,101193.66
2022-10-18T08:08:51.644Z,101172.94
2022-10-18T08:11:23.068Z,101177.72
2022-10-18T08:13:52.829Z,101186.88
2022-10-18T08:16:29.264Z,101184.38
2022-10-18T08:19:00.142Z,101174.00
2022-10-18T08:21:28.266Z,101175.88
2022-10-18T08:23:56.034Z,101178.44
2022-10-18T08:26:23.851Z,101171.94
2022-10-18T08:29:03.636Z,101176.72
2022-10-18T08:31:37.088Z,101167.34
2022-10-18T08:34:03.666Z,101168.53
2022-10-18T08:36:30.249Z,101173.25
2022-10-18T08:38:56.945Z,101169.53
2022-10-18T08:41:47.297Z,101165.94
2022-10-18T08:44:32.156Z,101165.91
2022-10-18T08:47:04.322Z,101168.22
2022-10-18T08:49:46.277Z,101155.84
2022-10-18T08:52:37.198Z,101158.38
2022-10-18T08:55:12.519Z,101155.44
2022-10-18T08:57:39.172Z,101153.78
2022-10-18T09:00:16.200Z,101151.56
2022-10-18T09:02:48.611Z,101148.19
2022-10-18T09:05:25.144Z,101152.34
2022-10-18T09:08:11.583Z,101144.53
2022-10-18T09:10:52.072Z,101139.88
2022-10-18T09:13:31.744Z,101134.66
2022-10-18T09:16:04.980Z,101145.84
2022-10-18T09:19:08.164Z,101132.47
2022-10-18T09:21:40.698Z,101137.94
2022-10-18T09:24:54.558Z,101136.25
2022-10-18T09:27:28.925Z,101135.22
2022-10-18T09:30:05.361Z,101128.53
2022-10-18T09:32:50.185Z,101131.72
2022-10-18T09:35:27.374Z,101123.50
2022-10-18T09:38:02.225Z,101121.91
2022-10-18T09:40:33.160Z,101113.16
2022-10-18T09:43:17.696Z,101121.53
2022-10-18T09:45:45.884Z,101114.38
2022-10-18T09:48:15.072Z,101107.31
2022-10-18T09:50:48.969Z,101104.09
2022-10-18T09:53:37.553Z,101100.56
2022-10-18T09:56:15.095Z,101108.63
2022-10-18T09:58:51.280Z,101105.13
2022-10-18T10:01:30.360Z,101103.25
2022-10-18T10:03:56.965Z,101086.97
2022-10-18T10:06:31.998Z,101094.34
2022-10-18T10:09:07.235Z,101096.22
2022-10-18T10:11:40.353Z,101081.19
2022-10-18T10:16:55.379Z,101086.88
2022-10-18T10:19:35.880Z,101075.84
2022-10-18T10:22:14.260Z,101072.81
2022-10-18T10:24:53.747Z,101061.50
2022-10-18T10:27:34.787Z,101068.28
2022-10-18T10:30:07.130Z,101068.69
2022-10-18T10:32:46.986Z,101053.47
2022-10-18T10:35:53.661Z,101057.28
2022-10-18T10:38:26.096Z,101044.97
2022-10-18T10:40:53.715Z,101043.63
2022-10-18T10:43:43.283Z,101035.59
2022-10-18T10:46:11.759Z,101032.91
2022-10-18T10:48:49.962Z,101017.41
2022-10-18T10:51:28.478Z,101019.81
2022-10-18T10:54:04.414Z,101008.94
2022-10-18T10:56:37.588Z,101007.66
2022-10-18T10:59:14.655Z,101006.91
2022-10-18T11:01:41.916Z,100999.94
2022-10-18T11:04:30.613Z,101003.25
2022-10-18T11:07:08.992Z,100996.59
2022-10-18T11:09:51.065Z,100986.16
2022-10-18T11:12:26.931Z,100989.44
2022-10-18T11:15:10.018Z,100999.00
2022-10-18T11:17:45.267Z,100982.84
2022-10-18T11:20:17.961Z,100976.38
2022-10-18T11:22:54.198Z,100984.28
2022-10-18T11:25:23.210Z,100967.94
2022-10-18T11:28:06.427Z,100966.75
2022-10-18T11:30:53.554Z,100964.63
2022-10-18T11:34:09.378Z,100961.56
2022-10-18T11:36:56.208Z,100959.31
2022-10-18T11:40:07.337Z,100944.38
2022-10-18T11:43:01.050Z,100952.91
2022-10-18T11:45:41.911Z,100949.69
2022-10-18T11:48:24.124Z,100937.28
2022-10-18T11:51:10.370Z,100937.84
2022-10-18T11:54:26.079Z,100924.47
2022-10-18T11:57:18.609Z,100927.94
2022-10-18T12:00:03.900Z,100925.22
2022-10-18T12:03:01.398Z,100913.00
2022-10-18T12:05:29.615Z,100914.47
2022-10-18T12:08:07.205Z,100912.16
2022-10-18T12:10:46.231Z,100906.44
2022-10-18T12:13:39.063Z,100897.81
2022-10-18T12:16:07.944Z,100898.50
2022-10-18T12:18:36.712Z,100888.75
2022-10-18T12:21:05.550Z,100885.44
2022-10-18T12:23:43.423Z,100886.63
2022-10-18T12:26:11.576Z,100884.41
2022-10-18T12:28:58.230Z,100881.06
2022-10-18T12:31:28.357Z,100883.41
2022-10-18T12:34:00.384Z,100875.72
2022-10-18T12:36:48.159Z,100873.50
2022-10-18T12:42:47.612Z,100866.78
2022-10-18T12:45:20.234Z,100866.19
2022-10-18T12:48:29.345Z,100861.38
2022-10-18T12:51:20.731Z,100857.03
2022-10-18T12:54:17.389Z,100857.41
2022-10-18T12:56:46.828Z,100856.50
2022-10-18T12:59:16.315Z,100853.09
2022-10-18T13:01:54.811Z,100847.81
2022-10-18T13:04:27.174Z,100843.19
2022-10-18T13:06:59.937Z,100837.84
2022-10-18T13:09:28.433Z,100838.81
2022-10-18T13:12:19.360Z,100836.38
2022-10-18T13:15:12.711Z,100828.94
2022-10-18T13:17:53.168Z,100836.34
2022-10-18T13:21:01.138Z,100828.84
2022-10-18T13:24:04.559Z,100828.72
2022-10-18T13:29:54.551Z,100827.75
2022-10-18T13:32:34.238Z,100832.94
2022-10-18T13:35:01.362Z,100832.09
2022-10-18T13:37:30.241Z,100819.75
2022-10-18T13:40:22.222Z,100822.09
2022-10-18T13:42:48.957Z,100813.81
2022-10-18T13:45:33.911Z,100825.06
2022-10-18T13:48:35.768Z,100820.03
2022-10-18T13:51:28.527Z,100826.88
2022-10-18T13:54:39.299Z,100811.19
2022-10-18T13:57:16.956Z,100810.53
2022-10-18T14:00:11.280Z,100818.38
2022-10-18T14:02:59.385Z,100808.50
2022-10-18T14:05:47.295Z,100804.63
2022-10-18T14:08:20.510Z,100796.72
2022-10-18T14:11:19.255Z,100793.81
2022-10-18T14:13:54.487Z,100791.16
2022-10-18T14:16:32.814Z,100786.75
2022-10-18T14:19:13.790Z,100783.38
2022-10-18T14:21:47.864Z,100784.25
2022-10-18T14:24:20.432Z,100781.03
2022-10-18T14:26:47.353Z,100787.53
2022-10-18T14:29:20.266Z,100783.50
2022-10-18T14:31:54.659Z,100781.50
2022-10-18T14:34:22.187Z,100771.66
2022-10-18T14:36:49.954Z,100770.25
2022-10-18T14:39:27.495Z,100766.19
2022-10-18T14:41:56.000Z,100764.53
2022-10-18T14:44:28.659Z,100763.75
2022-10-18T14:47:04.100Z,100754.13
2022-10-18T14:49:31.030Z,100757.13
2022-10-18T14:52:01.437Z,100749.28
2022-10-18T14:54:37.842Z,100746.25
2022-10-18T14:57:07.053Z,100745.25
2022-10-18T14:59:57.164Z,100744.56
2022-10-18T15:02:29.262Z,100745.88
2022-10-18T15:05:06.437Z,100739.25
2022-10-18T15:07:33.895Z,100743.28
2022-10-18T15:10:04.027Z,100739.03
2022-10-18T15:12:41.024Z,100739.84
2022-10-18T15:15:24.402Z,100745.91
2022-10-18T15:17:52.028Z,100726.94
2022-10-18T15:20:33.653Z,100728.78
2022-10-18T15:23:21.215Z,100724.25
2022-10-18T15:25:48.293Z,100719.19
2022-10-18T15:28:32.989Z,100725.03
2022-10-18T15:31:01.830Z,100727.41
2022-10-18T15:33:34.515Z,100717.22
2022-10-18T15:36:12.665Z,100712.47
2022-10-18T15:38:39.516Z,100720.88
2022-10-18T15:41:43.777Z,100723.63
2022-10-18T15:44:34.638Z,100718.13
2022-10-18T15:47:38.328Z,100716.94
2022-10-18T15:50:05.163Z,100716.22
2022-10-18T15:52:42.606Z,100723.72
2022-10-18T15:55:31.267Z,100718.56
2022-10-18T15:58:17.627Z,100719.59
2022-10-18T16:00:45.634Z,100722.38
2022-10-18T16:03:20.359Z,100725.56
2022-10-18T16:05:47.215Z,100716.59
2022-10-18T16:08:23.086Z,100720.94
2022-10-18T16:10:49.940Z,100721.13
2022-10-18T16:13:16.741Z,100720.97
2022-10-18T16:15:43.436Z,100729.13
2022-10-18T16:18:20.290Z,100734.91
2022-10-18T16:20:48.221Z,100724.16
2022-10-18T16:23:32.992Z,100727.25
2022-10-18T16:25:59.539Z,100730.81
2022-10-18T16:28:26.212Z,100728.88
2022-10-18T16:31:03.506Z,100728.34
2022-10-18T16:33:30.998Z,100734.56
2022-10-18T16:35:57.968Z,100736.00
2022-10-18T16:38:35.242Z,100733.22
2022-10-18T16:41:04.760Z,100728.38
2022-10-18T16:43:31.957Z,100729.78
2022-10-18T16:45:58.658Z,100734.22
2022-10-18T16:48:27.629Z,100728.84
2022-10-18T16:50:55.943Z,100733.66
2022-10-18T16:53:27.878Z,100725.16
2022-10-18T16:56:00.746Z,100733.69
2022-10-18T16:58:29.128Z,100736.44
2022-10-18T17:00:56.664Z,100750.03
2022-10-18T17:03:24.325Z,100735.13
2022-10-18T17:05:50.918Z,100732.06
2022-10-18T17:08:20.570Z,100738.88
2022-10-18T17:10:49.793Z,100733.78
2022-10-18T17:13:16.869Z,100729.38
2022-10-18T17:15:43.985Z,100735.47
2022-10-18T17:18:16.751Z,100727.69
2022-10-18T17:20:44.203Z,100720.88
2022-10-18T17:23:11.191Z,100727.28
2022-10-18T17:25:46.452Z,100722.50
2022-10-18T17:28:24.568Z,100721.50
2022-10-18T17:30:51.698Z,100719.09
2022-10-18T17:33:18.523Z,100725.16
2022-10-18T17:35:45.306Z,100724.16
2022-10-18T17:38:12.001Z,100725.97
2022-10-18T17:40:42.622Z,100723.25
2022-10-18T17:43:09.349Z,100717.66
2022-10-18T17:45:36.014Z,100719.97
2022-10-18T17:48:02.637Z,100713.53
2022-10-18T17:50:29.248Z,100711.31
2022-10-18T17:52:55.961Z,100715.34
2022-10-18T17:55:22.555Z,100716.50
2022-10-18T17:57:49.157Z,100713.28
2022-10-18T18:00:16.330Z,100710.06
2022-10-18T18:02:43.361Z,100715.78
2022-10-18T18:05:12.676Z,100714.41
2022-10-18T18:07:39.320Z,100708.31
2022-10-18T18:10:08.425Z,100709.31
2022-10-18T18:12:36.500Z,100711.34
2022-10-18T18:15:04.780Z,100702.69
2022-10-18T18:17:34.399Z,100710.06
2022-10-18T18:20:07.386Z,100703.97
2022-10-18T18:22:36.997Z,100703.78
2022-10-18T18:25:09.723Z,100702.41
2022-10-18T18:27:39.091Z,100701.00
2022-10-18T18:30:08.215Z,100697.94
2022-10-18T18:32:36.100Z,100695.69
2022-10-18T18:35:04.277Z,100689.78
2022-10-18T18:37:35.488Z,100694.63
2022-10-18T18:40:03.708Z,100691.25
2022-10-18T18:42:32.577Z,100687.66
2022-10-18T18:45:00.812Z,100692.28
2022-10-18T18:51:16.120Z,100685.44
2022-10-18T18:53:45.370Z,100694.69
2022-10-18T18:56:16.371Z,100689.75
2022-10-18T18:58:46.280Z,100689.38
2022-10-18T19:01:22.251Z,100695.41
2022-10-18T19:03:52.505Z,100685.22
2022-10-18T19:06:22.926Z,100691.25
2022-10-18T19:08:50.049Z,100693.56
2022-10-18T19:11:21.484Z,100693.09
2022-10-18T19:13:50.197Z,100683.47
2022-10-18T19:16:31.821Z,100680.38
2022-10-18T19:19:06.141Z,100682.00
2022-10-18T19:21:39.559Z,100674.22
2022-10-18T19:24:07.834Z,100676.78
2022-10-18T19:26:48.578Z,100681.66
2022-10-18T19:29:21.501Z,100683.09
2022-10-18T19:31:51.944Z,100686.81
2022-10-18T19:34:22.276Z,100674.31
2022-10-18T19:36:51.075Z,100674.31
2022-10-18T19:39:21.633Z,100669.75
2022-10-18T19:41:56.312Z,100668.91
2022-10-18T19:44:25.750Z,100666.19
2022-10-18T19:46:52.590Z,100665.22
2022-10-18T19:49:20.733Z,100665.22
2022-10-18T19:51:48.965Z,100668.22
2022-10-18T19:54:17.060Z,100665.81
2022-10-18T19:56:45.272Z,100662.38
2022-10-18T19:59:15.208Z,100662.38
2022-10-18T20:01:42.211Z,100666.81
2022-10-18T20:04:11.698Z,100658.41
2022-10-18T20:06:39.925Z,100661.09
2022-10-18T20:09:10.402Z,100654.72
2022-10-18T20:11:37.920Z,100649.00
2022-10-18T20:14:06.449Z,100651.69
2022-10-18T20:16:34.324Z,100654.41
2022-10-18T20:19:04.540Z,100650.97
2022-10-18T20:21:35.925Z,100651.28
2022-10-18T20:24:05.959Z,100652.47
2022-10-18T20:26:35.900Z,100640.94
2022-10-18T20:29:04.741Z,100643.47
2022-10-18T20:31:41.605Z,100643.47
2022-10-18T20:34:11.966Z,100640.09
2022-10-18T20:36:40.460Z,100639.41
2022-10-18T20:39:12.024Z,100643.09
2022-10-18T20:41:41.366Z,100635.44
2022-10-18T20:44:13.480Z,100624.63
2022-10-18T20:46:41.780Z,100622.09
2022-10-18T20:49:10.620Z,100625.78
2022-10-18T20:51:37.423Z,100628.09
2022-10-18T20:56:38.916Z,100615.56
2022-10-18T20:59:09.409Z,100618.75
2022-10-18T21:01:38.959Z,100617.88
2022-10-18T21:04:09.759Z,100618.91
2022-10-18T21:06:42.253Z,100611.94
2022-10-18T21:09:12.133Z,100614.78
2022-10-18T21:11:42.006Z,100607.69
2022-10-18T21:14:13.151Z,100610.00
2022-10-18T21:16:41.582Z,100599.47
2022-10-18T21:19:15.219Z,100597.78
2022-10-18T21:21:44.056Z,100598.06
2022-10-18T21:24:12.201Z,100605.78
2022-10-18T21:26:39.002Z,100594.97
2022-10-18T21:29:06.600Z,100589.88
2022-10-18T21:31:35.742Z,100594.44
2022-10-18T21:34:05.830Z,100572.84
2022-10-18T21:36:34.930Z,100571.97
2022-10-18T21:39:03.206Z,100573.00
2022-10-18T21:41:31.030Z,100573.69
2022-10-18T21:43:57.690Z,100573.69
2022-10-18T21:46:26.949Z,100570.00
2022-10-18T21:48:55.532Z,100571.66
2022-10-18T21:51:24.646Z,100571.94
2022-10-18T21:53:53.958Z,100565.38
2022-10-18T21:56:26.761Z,100565.06
2022-10-18T21:58:54.321Z,100567.31
2022-10-18T22:01:26.675Z,100565.34
2022-10-18T22:03:55.734Z,100562.78
2022-10-18T22:06:23.288Z,100556.81
2022-10-18T22:08:56.083Z,100550.03
2022-10-18T22:11:25.651Z,100544.38
2022-10-18T22:13:53.750Z,100544.00
2022-10-18T22:16:20.966Z,100539.03
2022-10-18T22:22:44.411Z,100535.81
2022-10-18T22:25:11.033Z,100538.81
2022-10-18T22:27:38.595Z,100542.47
2022-10-18T22:30:05.702Z,100534.53
2022-10-18T22:32:32.336Z,100535.69
2022-10-18T22:34:59.232Z,100546.47
2022-10-18T22:37:25.840Z,100547.78
2022-10-18T22:39:52.412Z,100546.81
2022-10-18T22:42:18.969Z,100551.97
2022-10-18T22:44:45.604Z,100554.09
2022-10-18T22:47:12.142Z,100550.00
2022-10-18T22:50:16.078Z,100556.31
2022-10-18T22:52:42.649Z,100562.56
2022-10-18T22:55:09.482Z,100554.63
2022-10-18T22:57:36.118Z,100551.53
2022-10-18T23:00:03.767Z,100555.50
2022-10-18T23:02:30.735Z,100554.06
2022-10-18T23:04:57.428Z,100550.97
2022-10-18T23:07:23.977Z,100550.13
2022-10-18T23:09:50.634Z,100552.38
2022-10-18T23:12:17.231Z,100545.03
2022-10-18T23:14:44.660Z,100553.81
2022-10-18T23:17:11.406Z,100554.94
2022-10-18T23:19:38.507Z,100556.19
2022-10-18T23:22:05.164Z,100554.78
2022-10-18T23:24:31.981Z,100558.72
2022-10-18T23:26:58.533Z,100564.25
2022-10-18T23:29:25.171Z,100554.88
2022-10-18T23:31:51.713Z,100553.75
2022-10-18T23:34:18.296Z,100560.41
2022-10-18T23:39:16.413Z,100550.03
2022-10-18T23:41:44.280Z,100550.56
2022-10-18T23:44:12.052Z,100558.47
2022-10-18T23:46:41.752Z,100555.31
2022-10-18T23:49:09.539Z,100552.19
2022-10-18T23:51:37.653Z,100554.16
2022-10-18T23:54:04.253Z,100550.75
2022-10-18T23:56:32.514Z,100541.97
2022-10-18T23:59:00.432Z,100541.25
